Página principal
METAR-TAF:

METAR-TAF

Aeroportos :

Chita, Rússia

latitude: 52-05N, longitude: 113-29E, altura: 685 m

Observação actual do tempo

O boletim foi feito há 39 minutos, às 11:30 UTC
Vento 2 kt de noroeste
Temperatura -33°C
Humidade 74%
Pressão 1030 hPa
Visibilidade: 5000 m
bruma

METAR: UIAA 121130Z 32001MPS 5000 HZ NSC M33/M36 Q1030 R29/410060 NOSIG RMK QFE713/0951

Hora: 21:09 (12:09 UTC)

Previsão

O boletim foi feito há 1 hora e 9 minutos, às 11:00 UTC
Previsão válida de 12 às 12 UTC a 13 às 12 UTC
Vento 6 kt de oes-noroeste
Visibilidade: 3100 m
neblina
Temporariamente
de 12 às 12 UTC a 13 às 01 UTC
Visibilidade: 0500 m
nevoeiro
Tornando-se
de 13 às 01 UTC a 13 às 03 UTC
Visibilidade 10 km ou mais

TAF: UIAA 121100Z 1212/1312 30003MPS 3100 BR NSC TEMPO 1212/1301 0500 FG BECMG 1301/1303 9999 NSW

Observações e previsões do tempo de mais de 4000 aeroportos (mensagens METAR e TAF).

As estações disponíveis são os pontos amarelos e vermelhos sobre o mapa.

Mova o rato sobre o mapa para ver o nome da estação.

Depois clique no ponto para visualizar as observações e previsões meteorológicas.

Para alterar o mapa : clique nos botões verdes com uma cruz preta para aumentar o zoom; no botão verde com uma pitada de zoom; ou nas setas verdes para mapas adjacentes.


METAR-TAF: